createdAt,value
2022-12-19T00:02:51.417Z,48.90
2022-12-19T00:07:55.858Z,48.90
2022-12-19T00:13:00.811Z,49.20
2022-12-19T00:18:05.156Z,49.40
2022-12-19T00:23:08.875Z,49.50
2022-12-19T00:28:12.600Z,49.50
2022-12-19T00:33:16.325Z,49.20
2022-12-19T00:38:20.053Z,49.60
2022-12-19T00:43:23.900Z,49.40
2022-12-19T00:48:27.707Z,49.40
2022-12-19T00:53:31.431Z,49.60
2022-12-19T00:58:35.748Z,49.30
2022-12-19T01:03:41.751Z,49.50
2022-12-19T01:08:53.130Z,49.70
2022-12-19T01:13:58.511Z,49.60
2022-12-19T01:19:02.547Z,48.20
2022-12-19T01:24:08.830Z,47.60
2022-12-19T01:29:12.859Z,47.10
2022-12-19T01:34:16.694Z,46.80
2022-12-19T01:39:20.424Z,46.40
2022-12-19T01:44:26.799Z,46.20
2022-12-19T01:49:36.309Z,45.80
2022-12-19T01:54:41.631Z,46.10
2022-12-19T01:59:56.366Z,46.30
2022-12-19T02:05:03.880Z,46.30
2022-12-19T02:10:08.225Z,45.90
2022-12-19T02:15:16.210Z,45.90
2022-12-19T02:21:04.197Z,45.80
2022-12-19T02:26:17.144Z,45.60
2022-12-19T02:31:29.985Z,45.50
2022-12-19T08:09:07.792Z,47.40
2022-12-19T08:14:14.915Z,47.30
2022-12-19T08:19:27.592Z,46.10
2022-12-19T08:24:35.550Z,46.00
2022-12-19T08:29:41.420Z,46.40
2022-12-19T08:34:45.558Z,46.40
2022-12-19T08:39:49.533Z,46.40
2022-12-19T08:44:53.925Z,46.70
2022-12-19T08:49:58.285Z,46.60
2022-12-19T08:55:03.322Z,47.00
2022-12-19T09:00:07.179Z,49.00
2022-12-19T09:33:41.239Z,50.00
2022-12-19T09:39:02.318Z,49.80
2022-12-19T09:44:49.614Z,49.70
2022-12-19T09:55:33.912Z,48.50
2022-12-19T10:00:43.593Z,48.00
2022-12-19T10:07:16.198Z,47.80
2022-12-19T10:12:44.610Z,47.60
2022-12-19T10:17:27.100Z,47.60
2022-12-19T10:22:56.175Z,47.20
2022-12-19T10:28:29.250Z,46.70
2022-12-19T10:33:44.331Z,46.10
2022-12-19T10:38:54.727Z,45.60
2022-12-19T10:44:10.442Z,46.20
2022-12-19T10:49:19.452Z,45.70
2022-12-19T10:54:33.085Z,45.40
2022-12-19T10:59:37.365Z,45.30
2022-12-19T11:04:41.624Z,46.20
2022-12-19T11:09:52.427Z,47.50
2022-12-19T11:19:54.530Z,49.10
2022-12-19T11:29:19.131Z,50.60
2022-12-19T11:30:43.175Z,51.00
2022-12-19T11:37:21.774Z,53.70
2022-12-19T11:42:26.530Z,53.70
2022-12-19T11:47:46.213Z,54.10
2022-12-19T11:53:07.803Z,54.20
2022-12-19T11:58:14.551Z,54.80
2022-12-19T12:04:01.005Z,55.70
2022-12-19T12:12:47.482Z,55.40
2022-12-19T12:28:19.518Z,55.50
2022-12-19T12:31:02.136Z,56.00
2022-12-19T12:31:48.867Z,56.20
2022-12-19T12:35:31.529Z,56.10
2022-12-19T12:39:33.340Z,56.40
2022-12-19T12:44:46.132Z,56.50
2022-12-19T12:50:00.091Z,56.80
2022-12-19T12:55:06.352Z,56.60
2022-12-19T13:00:24.270Z,57.00
2022-12-19T13:05:46.448Z,57.00
2022-12-19T13:10:59.365Z,56.70
2022-12-19T13:16:41.442Z,56.90
2022-12-19T13:22:04.159Z,57.50
2022-12-19T13:27:20.044Z,57.20
2022-12-19T13:32:24.289Z,58.00
2022-12-19T13:40:02.344Z,57.80
2022-12-19T13:43:25.812Z,56.80
2022-12-19T13:48:45.027Z,56.20
2022-12-19T13:54:00.163Z,55.70
2022-12-19T13:59:08.889Z,55.50
2022-12-19T14:04:28.340Z,55.40
2022-12-19T14:11:30.160Z,55.60
2022-12-19T14:15:32.126Z,55.10
2022-12-19T14:22:11.570Z,54.30
2022-12-19T14:28:19.922Z,53.20
2022-12-19T14:31:35.867Z,53.30
2022-12-19T14:36:41.319Z,53.30
2022-12-19T14:42:06.515Z,53.60
2022-12-19T14:52:36.099Z,53.40
2022-12-19T14:54:25.923Z,54.00
2022-12-19T14:58:53.445Z,53.20
2022-12-19T15:04:33.670Z,53.30
2022-12-19T15:11:04.093Z,53.40
2022-12-19T15:14:56.395Z,53.30
2022-12-19T15:20:02.628Z,53.00
2022-12-19T15:25:35.845Z,52.80
2022-12-19T15:30:41.289Z,53.30
2022-12-19T15:35:45.396Z,54.50
2022-12-19T15:40:49.669Z,54.90
2022-12-19T15:45:59.850Z,55.80
2022-12-19T15:51:05.709Z,55.80
2022-12-19T15:56:28.591Z,56.10
2022-12-19T16:01:33.883Z,56.80
2022-12-19T16:06:38.477Z,56.40
2022-12-19T16:11:42.217Z,56.50
2022-12-19T16:16:52.481Z,56.60
2022-12-19T16:27:31.584Z,57.10
2022-12-19T16:32:35.385Z,57.50
2022-12-19T16:37:39.012Z,57.40
2022-12-19T16:42:44.671Z,57.30
2022-12-19T16:47:49.550Z,57.10
2022-12-19T16:52:55.204Z,57.60
2022-12-19T16:58:04.301Z,57.90
2022-12-19T17:03:36.835Z,58.00
2022-12-19T17:08:41.892Z,56.80
2022-12-19T17:13:51.643Z,56.40
2022-12-19T17:18:55.481Z,56.40
2022-12-19T17:24:01.965Z,57.00
2022-12-19T17:29:06.405Z,58.60
2022-12-19T17:34:24.859Z,59.50
2022-12-19T17:39:32.419Z,59.50
2022-12-19T17:44:39.302Z,59.90
2022-12-19T17:49:44.426Z,60.30
2022-12-19T17:54:50.916Z,63.90
2022-12-19T17:59:54.745Z,62.90
2022-12-19T18:04:58.979Z,62.20
2022-12-19T18:10:02.605Z,61.20
2022-12-19T18:15:07.125Z,60.60
2022-12-19T18:20:37.404Z,59.80
2022-12-19T18:25:47.813Z,59.70
2022-12-19T18:31:35.135Z,60.40
2022-12-19T18:36:55.234Z,59.50
2022-12-19T18:42:03.067Z,59.20
2022-12-19T18:47:24.649Z,60.80
2022-12-19T18:52:47.546Z,60.50
2022-12-19T18:58:27.034Z,60.80
2022-12-19T19:03:45.816Z,60.10
2022-12-19T19:08:53.533Z,59.20
2022-12-19T19:14:32.239Z,58.30
2022-12-19T19:19:38.611Z,58.20
2022-12-19T19:24:45.316Z,57.80
2022-12-19T19:29:55.490Z,57.40
2022-12-19T19:35:03.220Z,57.00
2022-12-19T19:40:16.832Z,56.40
2022-12-19T19:45:27.618Z,55.90
2022-12-19T19:50:37.165Z,55.50
2022-12-19T19:55:42.067Z,55.50
2022-12-19T20:00:50.842Z,55.50
2022-12-19T20:06:05.922Z,55.00
2022-12-19T20:11:12.275Z,55.40
2022-12-19T20:16:23.434Z,54.90
2022-12-19T20:21:29.538Z,54.80
2022-12-19T20:26:33.795Z,55.00
2022-12-19T20:31:39.863Z,55.50
2022-12-19T20:36:49.835Z,55.20
2022-12-19T20:41:54.290Z,55.20
2022-12-19T20:46:59.535Z,54.90
2022-12-19T20:52:03.878Z,55.20
2022-12-19T20:57:11.893Z,54.60
2022-12-19T21:02:25.646Z,54.70
2022-12-19T21:07:31.905Z,54.40
2022-12-19T21:12:47.370Z,54.30
2022-12-19T21:17:55.811Z,54.30
2022-12-19T21:23:09.665Z,54.60
2022-12-19T21:28:32.597Z,54.00
2022-12-19T21:33:37.848Z,53.90
2022-12-19T21:38:44.332Z,53.60
2022-12-19T21:43:51.988Z,53.50
2022-12-19T21:48:59.748Z,53.80
2022-12-19T21:54:05.301Z,53.10
2022-12-19T21:59:15.479Z,53.30
2022-12-19T22:04:24.245Z,53.30
2022-12-19T22:09:34.250Z,55.90
2022-12-19T22:14:46.063Z,56.30
2022-12-19T22:19:51.476Z,55.80
2022-12-19T22:24:59.295Z,55.00
2022-12-19T22:30:08.808Z,55.10
2022-12-19T22:35:14.932Z,55.10
2022-12-19T22:40:20.706Z,55.00
2022-12-19T22:45:24.330Z,55.40
2022-12-19T22:50:30.817Z,55.70
2022-12-19T22:55:34.675Z,57.30
2022-12-19T23:00:38.478Z,58.60
2022-12-19T23:05:46.928Z,58.90
2022-12-19T23:10:54.213Z,58.60
2022-12-19T23:15:58.455Z,58.50
2022-12-19T23:21:09.348Z,58.30
2022-12-19T23:26:16.077Z,58.20
2022-12-19T23:31:22.053Z,58.40
2022-12-19T23:37:08.824Z,57.60
2022-12-19T23:41:56.682Z,57.70
2022-12-19T23:47:03.385Z,57.40
2022-12-19T23:52:07.713Z,57.20
2022-12-19T23:57:11.442Z,57.10
